sensor_id;sensor_type;location;lat;lon;timestamp;P1;durP1;ratioP1;P2;durP2;ratioP2
19535;SDS011;9913;51.168;4.124;2023-11-19T00:00:23;10.23;;;4.93;;
19535;SDS011;9913;51.168;4.124;2023-11-19T00:02:53;10.57;;;4.97;;
19535;SDS011;9913;51.168;4.124;2023-11-19T00:05:21;12.03;;;6.20;;
19535;SDS011;9913;51.168;4.124;2023-11-19T00:07:50;10.83;;;5.70;;
19535;SDS011;9913;51.168;4.124;2023-11-19T00:10:18;12.67;;;6.00;;
19535;SDS011;9913;51.168;4.124;2023-11-19T00:12:48;12.23;;;4.97;;
19535;SDS011;9913;51.168;4.124;2023-11-19T00:15:17;13.53;;;4.97;;
19535;SDS011;9913;51.168;4.124;2023-11-19T00:17:46;12.00;;;5.20;;
19535;SDS011;9913;51.168;4.124;2023-11-19T00:20:18;10.10;;;4.47;;
19535;SDS011;9913;51.168;4.124;2023-11-19T00:22:48;13.40;;;4.97;;
19535;SDS011;9913;51.168;4.124;2023-11-19T00:25:19;13.87;;;5.50;;
19535;SDS011;9913;51.168;4.124;2023-11-19T00:27:49;13.57;;;4.87;;
19535;SDS011;9913;51.168;4.124;2023-11-19T00:30:20;14.77;;;5.00;;
19535;SDS011;9913;51.168;4.124;2023-11-19T00:32:48;12.77;;;5.13;;
19535;SDS011;9913;51.168;4.124;2023-11-19T00:35:18;15.53;;;5.00;;
19535;SDS011;9913;51.168;4.124;2023-11-19T00:37:47;13.73;;;4.73;;
19535;SDS011;9913;51.168;4.124;2023-11-19T00:40:16;16.57;;;4.70;;
19535;SDS011;9913;51.168;4.124;2023-11-19T00:42:45;17.30;;;5.37;;
19535;SDS011;9913;51.168;4.124;2023-11-19T00:45:14;18.13;;;4.93;;
19535;SDS011;9913;51.168;4.124;2023-11-19T00:47:43;16.43;;;5.40;;
19535;SDS011;9913;51.168;4.124;2023-11-19T00:50:11;14.60;;;4.60;;
19535;SDS011;9913;51.168;4.124;2023-11-19T00:52:41;14.60;;;4.33;;
19535;SDS011;9913;51.168;4.124;2023-11-19T00:55:09;20.23;;;4.90;;
19535;SDS011;9913;51.168;4.124;2023-11-19T00:57:39;15.30;;;5.80;;
19535;SDS011;9913;51.168;4.124;2023-11-19T01:00:08;17.37;;;4.83;;
19535;SDS011;9913;51.168;4.124;2023-11-19T01:02:46;25.93;;;5.33;;
19535;SDS011;9913;51.168;4.124;2023-11-19T01:05:18;21.37;;;5.43;;
19535;SDS011;9913;51.168;4.124;2023-11-19T01:07:50;19.50;;;4.80;;
19535;SDS011;9913;51.168;4.124;2023-11-19T01:10:21;18.93;;;5.60;;
19535;SDS011;9913;51.168;4.124;2023-11-19T01:12:50;25.13;;;5.60;;
19535;SDS011;9913;51.168;4.124;2023-11-19T01:15:19;31.10;;;6.13;;
19535;SDS011;9913;51.168;4.124;2023-11-19T01:17:47;20.07;;;5.30;;
19535;SDS011;9913;51.168;4.124;2023-11-19T01:20:19;19.07;;;5.10;;
19535;SDS011;9913;51.168;4.124;2023-11-19T01:22:49;25.97;;;5.97;;
19535;SDS011;9913;51.168;4.124;2023-11-19T01:25:18;22.70;;;5.27;;
19535;SDS011;9913;51.168;4.124;2023-11-19T01:27:47;25.80;;;6.60;;
19535;SDS011;9913;51.168;4.124;2023-11-19T01:30:17;24.73;;;5.80;;
19535;SDS011;9913;51.168;4.124;2023-11-19T01:32:48;25.80;;;5.87;;
19535;SDS011;9913;51.168;4.124;2023-11-19T01:35:17;24.13;;;5.33;;
19535;SDS011;9913;51.168;4.124;2023-11-19T01:37:45;25.60;;;5.97;;
19535;SDS011;9913;51.168;4.124;2023-11-19T01:40:15;16.13;;;5.27;;
19535;SDS011;9913;51.168;4.124;2023-11-19T01:42:47;28.20;;;6.20;;
19535;SDS011;9913;51.168;4.124;2023-11-19T01:45:21;24.13;;;6.30;;
19535;SDS011;9913;51.168;4.124;2023-11-19T01:47:55;25.13;;;5.50;;
19535;SDS011;9913;51.168;4.124;2023-11-19T01:50:23;25.07;;;6.57;;
19535;SDS011;9913;51.168;4.124;2023-11-19T01:52:52;27.90;;;6.07;;
19535;SDS011;9913;51.168;4.124;2023-11-19T01:55:25;33.37;;;7.37;;
19535;SDS011;9913;51.168;4.124;2023-11-19T01:57:57;29.20;;;6.73;;
19535;SDS011;9913;51.168;4.124;2023-11-19T02:00:29;26.13;;;6.20;;
19535;SDS011;9913;51.168;4.124;2023-11-19T02:03:00;26.77;;;6.40;;
19535;SDS011;9913;51.168;4.124;2023-11-19T02:05:30;28.93;;;7.03;;
19535;SDS011;9913;51.168;4.124;2023-11-19T02:07:59;21.20;;;6.13;;
19535;SDS011;9913;51.168;4.124;2023-11-19T02:10:29;25.47;;;5.77;;
19535;SDS011;9913;51.168;4.124;2023-11-19T02:13:00;17.03;;;5.00;;
19535;SDS011;9913;51.168;4.124;2023-11-19T02:15:32;28.47;;;6.23;;
19535;SDS011;9913;51.168;4.124;2023-11-19T02:18:17;24.80;;;6.07;;
19535;SDS011;9913;51.168;4.124;2023-11-19T02:20:45;32.60;;;6.50;;
19535;SDS011;9913;51.168;4.124;2023-11-19T02:23:16;19.73;;;5.73;;
19535;SDS011;9913;51.168;4.124;2023-11-19T02:25:50;27.20;;;6.60;;
19535;SDS011;9913;51.168;4.124;2023-11-19T02:28:31;29.20;;;5.90;;
19535;SDS011;9913;51.168;4.124;2023-11-19T02:30:59;37.50;;;6.07;;
19535;SDS011;9913;51.168;4.124;2023-11-19T02:33:28;32.00;;;6.53;;
19535;SDS011;9913;51.168;4.124;2023-11-19T02:35:56;36.73;;;6.30;;
19535;SDS011;9913;51.168;4.124;2023-11-19T02:38:24;23.93;;;6.23;;
19535;SDS011;9913;51.168;4.124;2023-11-19T02:40:53;29.47;;;6.23;;
19535;SDS011;9913;51.168;4.124;2023-11-19T02:43:21;26.13;;;6.10;;
19535;SDS011;9913;51.168;4.124;2023-11-19T02:45:51;28.73;;;6.70;;
19535;SDS011;9913;51.168;4.124;2023-11-19T02:48:22;29.40;;;6.60;;
19535;SDS011;9913;51.168;4.124;2023-11-19T02:50:51;22.87;;;6.80;;
19535;SDS011;9913;51.168;4.124;2023-11-19T02:53:19;22.10;;;6.77;;
19535;SDS011;9913;51.168;4.124;2023-11-19T02:55:49;23.67;;;5.63;;
19535;SDS011;9913;51.168;4.124;2023-11-19T02:58:18;28.67;;;6.30;;
19535;SDS011;9913;51.168;4.124;2023-11-19T03:00:52;29.13;;;6.57;;
19535;SDS011;9913;51.168;4.124;2023-11-19T03:03:24;26.40;;;6.60;;
19535;SDS011;9913;51.168;4.124;2023-11-19T03:05:57;29.20;;;6.93;;
19535;SDS011;9913;51.168;4.124;2023-11-19T03:08:26;26.77;;;6.40;;
19535;SDS011;9913;51.168;4.124;2023-11-19T03:10:54;27.53;;;6.73;;
19535;SDS011;9913;51.168;4.124;2023-11-19T03:13:22;32.87;;;7.03;;
19535;SDS011;9913;51.168;4.124;2023-11-19T03:15:50;21.83;;;6.37;;
19535;SDS011;9913;51.168;4.124;2023-11-19T03:18:21;35.33;;;7.20;;
19535;SDS011;9913;51.168;4.124;2023-11-19T03:20:49;31.43;;;7.13;;
19535;SDS011;9913;51.168;4.124;2023-11-19T03:23:19;37.37;;;6.67;;
19535;SDS011;9913;51.168;4.124;2023-11-19T03:25:47;34.03;;;6.90;;
19535;SDS011;9913;51.168;4.124;2023-11-19T03:28:15;26.03;;;6.27;;
19535;SDS011;9913;51.168;4.124;2023-11-19T03:30:44;30.60;;;7.30;;
19535;SDS011;9913;51.168;4.124;2023-11-19T03:33:13;32.70;;;6.47;;
19535;SDS011;9913;51.168;4.124;2023-11-19T03:35:42;31.33;;;6.80;;
19535;SDS011;9913;51.168;4.124;2023-11-19T03:38:10;30.70;;;6.37;;
19535;SDS011;9913;51.168;4.124;2023-11-19T03:40:39;27.83;;;6.23;;
19535;SDS011;9913;51.168;4.124;2023-11-19T03:43:07;25.37;;;5.73;;
19535;SDS011;9913;51.168;4.124;2023-11-19T03:45:36;35.23;;;7.53;;
19535;SDS011;9913;51.168;4.124;2023-11-19T03:48:07;31.53;;;7.67;;
19535;SDS011;9913;51.168;4.124;2023-11-19T03:50:36;29.67;;;7.10;;
19535;SDS011;9913;51.168;4.124;2023-11-19T03:53:06;27.27;;;6.30;;
19535;SDS011;9913;51.168;4.124;2023-11-19T03:55:34;30.47;;;6.90;;
19535;SDS011;9913;51.168;4.124;2023-11-19T03:58:03;27.73;;;6.17;;
19535;SDS011;9913;51.168;4.124;2023-11-19T04:00:31;35.33;;;6.50;;
19535;SDS011;9913;51.168;4.124;2023-11-19T04:03:00;30.20;;;6.60;;
19535;SDS011;9913;51.168;4.124;2023-11-19T04:05:28;31.63;;;7.47;;
19535;SDS011;9913;51.168;4.124;2023-11-19T04:07:58;37.17;;;7.60;;
19535;SDS011;9913;51.168;4.124;2023-11-19T04:10:27;23.13;;;6.50;;
19535;SDS011;9913;51.168;4.124;2023-11-19T04:12:56;32.83;;;6.70;;
19535;SDS011;9913;51.168;4.124;2023-11-19T04:15:24;32.47;;;6.80;;
19535;SDS011;9913;51.168;4.124;2023-11-19T04:17:52;23.63;;;6.10;;
19535;SDS011;9913;51.168;4.124;2023-11-19T04:20:21;21.50;;;6.43;;
19535;SDS011;9913;51.168;4.124;2023-11-19T04:22:49;32.43;;;7.57;;
19535;SDS011;9913;51.168;4.124;2023-11-19T04:25:20;27.70;;;5.80;;
19535;SDS011;9913;51.168;4.124;2023-11-19T04:27:50;27.40;;;6.37;;
19535;SDS011;9913;51.168;4.124;2023-11-19T04:30:18;31.10;;;6.67;;
19535;SDS011;9913;51.168;4.124;2023-11-19T04:32:46;22.50;;;5.90;;
19535;SDS011;9913;51.168;4.124;2023-11-19T04:35:15;33.33;;;7.00;;
19535;SDS011;9913;51.168;4.124;2023-11-19T04:37:45;23.83;;;6.23;;
19535;SDS011;9913;51.168;4.124;2023-11-19T04:40:14;35.27;;;7.10;;
19535;SDS011;9913;51.168;4.124;2023-11-19T04:42:44;38.13;;;7.33;;
19535;SDS011;9913;51.168;4.124;2023-11-19T04:45:12;35.67;;;8.17;;
19535;SDS011;9913;51.168;4.124;2023-11-19T04:47:41;33.00;;;6.77;;
19535;SDS011;9913;51.168;4.124;2023-11-19T04:50:10;33.67;;;6.80;;
19535;SDS011;9913;51.168;4.124;2023-11-19T04:52:38;32.73;;;8.10;;
19535;SDS011;9913;51.168;4.124;2023-11-19T04:55:09;34.33;;;6.00;;
19535;SDS011;9913;51.168;4.124;2023-11-19T04:57:39;32.83;;;6.20;;
19535;SDS011;9913;51.168;4.124;2023-11-19T05:00:09;44.43;;;7.63;;
19535;SDS011;9913;51.168;4.124;2023-11-19T05:02:41;25.80;;;7.40;;
19535;SDS011;9913;51.168;4.124;2023-11-19T05:05:11;29.90;;;6.43;;
19535;SDS011;9913;51.168;4.124;2023-11-19T05:07:39;29.33;;;6.63;;
19535;SDS011;9913;51.168;4.124;2023-11-19T05:10:08;33.50;;;8.10;;
19535;SDS011;9913;51.168;4.124;2023-11-19T05:12:36;33.80;;;7.17;;
19535;SDS011;9913;51.168;4.124;2023-11-19T05:15:05;29.43;;;7.20;;
19535;SDS011;9913;51.168;4.124;2023-11-19T05:17:36;35.10;;;7.00;;
19535;SDS011;9913;51.168;4.124;2023-11-19T05:20:05;30.60;;;7.23;;
19535;SDS011;9913;51.168;4.124;2023-11-19T05:22:40;27.47;;;6.83;;
19535;SDS011;9913;51.168;4.124;2023-11-19T05:25:09;28.20;;;6.50;;
19535;SDS011;9913;51.168;4.124;2023-11-19T05:27:37;26.70;;;7.33;;
19535;SDS011;9913;51.168;4.124;2023-11-19T05:30:06;30.90;;;6.87;;
19535;SDS011;9913;51.168;4.124;2023-11-19T05:32:39;31.07;;;6.37;;
19535;SDS011;9913;51.168;4.124;2023-11-19T05:35:07;30.07;;;6.90;;
19535;SDS011;9913;51.168;4.124;2023-11-19T05:37:36;39.00;;;8.07;;
19535;SDS011;9913;51.168;4.124;2023-11-19T05:40:05;32.50;;;8.00;;
19535;SDS011;9913;51.168;4.124;2023-11-19T05:42:41;37.50;;;7.33;;
19535;SDS011;9913;51.168;4.124;2023-11-19T05:45:11;29.27;;;6.47;;
19535;SDS011;9913;51.168;4.124;2023-11-19T05:47:41;26.80;;;6.57;;
19535;SDS011;9913;51.168;4.124;2023-11-19T05:50:10;28.10;;;5.83;;
19535;SDS011;9913;51.168;4.124;2023-11-19T05:52:39;32.33;;;7.30;;
19535;SDS011;9913;51.168;4.124;2023-11-19T05:55:07;21.50;;;6.10;;
19535;SDS011;9913;51.168;4.124;2023-11-19T05:57:37;29.17;;;6.33;;
19535;SDS011;9913;51.168;4.124;2023-11-19T06:00:09;32.63;;;6.27;;
19535;SDS011;9913;51.168;4.124;2023-11-19T06:02:40;28.17;;;5.80;;
19535;SDS011;9913;51.168;4.124;2023-11-19T06:05:09;29.87;;;5.90;;
19535;SDS011;9913;51.168;4.124;2023-11-19T06:07:38;40.10;;;7.93;;
19535;SDS011;9913;51.168;4.124;2023-11-19T06:10:08;29.37;;;6.67;;
19535;SDS011;9913;51.168;4.124;2023-11-19T06:12:38;36.93;;;8.83;;
19535;SDS011;9913;51.168;4.124;2023-11-19T06:15:08;34.17;;;6.67;;
19535;SDS011;9913;51.168;4.124;2023-11-19T06:17:36;32.40;;;7.30;;
19535;SDS011;9913;51.168;4.124;2023-11-19T06:20:07;33.30;;;7.43;;
19535;SDS011;9913;51.168;4.124;2023-11-19T06:22:38;33.20;;;8.10;;
19535;SDS011;9913;51.168;4.124;2023-11-19T06:25:09;29.57;;;6.03;;
19535;SDS011;9913;51.168;4.124;2023-11-19T06:27:38;40.17;;;6.20;;
19535;SDS011;9913;51.168;4.124;2023-11-19T06:30:06;28.33;;;6.80;;
19535;SDS011;9913;51.168;4.124;2023-11-19T06:32:35;35.57;;;7.17;;
19535;SDS011;9913;51.168;4.124;2023-11-19T06:35:04;27.43;;;6.57;;
19535;SDS011;9913;51.168;4.124;2023-11-19T06:37:34;35.43;;;6.40;;
19535;SDS011;9913;51.168;4.124;2023-11-19T06:40:03;27.67;;;6.27;;
19535;SDS011;9913;51.168;4.124;2023-11-19T06:42:32;35.47;;;7.60;;
19535;SDS011;9913;51.168;4.124;2023-11-19T06:45:01;29.13;;;7.20;;
19535;SDS011;9913;51.168;4.124;2023-11-19T06:47:29;37.23;;;6.80;;
19535;SDS011;9913;51.168;4.124;2023-11-19T06:49:58;37.53;;;7.47;;
19535;SDS011;9913;51.168;4.124;2023-11-19T06:52:26;33.70;;;6.60;;
19535;SDS011;9913;51.168;4.124;2023-11-19T06:54:56;29.97;;;6.47;;
19535;SDS011;9913;51.168;4.124;2023-11-19T06:57:27;31.10;;;6.17;;
19535;SDS011;9913;51.168;4.124;2023-11-19T06:59:56;36.10;;;6.60;;
19535;SDS011;9913;51.168;4.124;2023-11-19T07:02:25;29.73;;;7.17;;
19535;SDS011;9913;51.168;4.124;2023-11-19T07:04:57;33.00;;;7.27;;
19535;SDS011;9913;51.168;4.124;2023-11-19T07:07:28;30.47;;;6.60;;
19535;SDS011;9913;51.168;4.124;2023-11-19T07:09:58;41.03;;;7.07;;
19535;SDS011;9913;51.168;4.124;2023-11-19T07:12:26;30.47;;;6.67;;
19535;SDS011;9913;51.168;4.124;2023-11-19T07:14:54;33.03;;;6.20;;
19535;SDS011;9913;51.168;4.124;2023-11-19T07:17:23;30.73;;;7.03;;
19535;SDS011;9913;51.168;4.124;2023-11-19T07:19:51;28.03;;;6.27;;
19535;SDS011;9913;51.168;4.124;2023-11-19T07:22:19;33.00;;;7.10;;
19535;SDS011;9913;51.168;4.124;2023-11-19T07:24:48;30.87;;;7.20;;
19535;SDS011;9913;51.168;4.124;2023-11-19T07:27:18;26.50;;;6.57;;
19535;SDS011;9913;51.168;4.124;2023-11-19T07:29:47;34.73;;;8.23;;
19535;SDS011;9913;51.168;4.124;2023-11-19T07:32:15;35.33;;;8.17;;
19535;SDS011;9913;51.168;4.124;2023-11-19T07:34:43;36.17;;;7.17;;
19535;SDS011;9913;51.168;4.124;2023-11-19T07:37:11;28.10;;;6.27;;
19535;SDS011;9913;51.168;4.124;2023-11-19T07:39:40;26.93;;;6.43;;
19535;SDS011;9913;51.168;4.124;2023-11-19T07:42:08;36.87;;;6.87;;
19535;SDS011;9913;51.168;4.124;2023-11-19T07:44:38;34.23;;;7.30;;
19535;SDS011;9913;51.168;4.124;2023-11-19T07:47:07;36.00;;;6.97;;
19535;SDS011;9913;51.168;4.124;2023-11-19T07:49:35;30.70;;;7.63;;
19535;SDS011;9913;51.168;4.124;2023-11-19T07:52:04;31.37;;;7.53;;
19535;SDS011;9913;51.168;4.124;2023-11-19T07:54:47;42.67;;;7.63;;
19535;SDS011;9913;51.168;4.124;2023-11-19T07:57:15;34.63;;;7.47;;
19535;SDS011;9913;51.168;4.124;2023-11-19T07:59:46;32.47;;;7.43;;
19535;SDS011;9913;51.168;4.124;2023-11-19T08:02:14;35.43;;;8.07;;
19535;SDS011;9913;51.168;4.124;2023-11-19T08:04:43;33.10;;;5.93;;
19535;SDS011;9913;51.168;4.124;2023-11-19T08:07:17;32.47;;;7.07;;
19535;SDS011;9913;51.168;4.124;2023-11-19T08:09:45;34.40;;;7.57;;
19535;SDS011;9913;51.168;4.124;2023-11-19T08:12:13;27.67;;;6.63;;
19535;SDS011;9913;51.168;4.124;2023-11-19T08:14:43;31.90;;;6.47;;
19535;SDS011;9913;51.168;4.124;2023-11-19T08:17:13;23.37;;;5.93;;
19535;SDS011;9913;51.168;4.124;2023-11-19T08:19:42;43.13;;;7.70;;
19535;SDS011;9913;51.168;4.124;2023-11-19T08:22:11;32.10;;;6.17;;
19535;SDS011;9913;51.168;4.124;2023-11-19T08:24:39;35.97;;;7.70;;
19535;SDS011;9913;51.168;4.124;2023-11-19T08:27:07;32.87;;;7.07;;
19535;SDS011;9913;51.168;4.124;2023-11-19T08:29:35;30.67;;;7.17;;
19535;SDS011;9913;51.168;4.124;2023-11-19T08:32:06;26.27;;;6.50;;
19535;SDS011;9913;51.168;4.124;2023-11-19T08:34:34;28.33;;;6.33;;
19535;SDS011;9913;51.168;4.124;2023-11-19T08:37:03;27.93;;;6.50;;
19535;SDS011;9913;51.168;4.124;2023-11-19T08:39:31;41.30;;;7.63;;
19535;SDS011;9913;51.168;4.124;2023-11-19T08:42:01;28.50;;;7.23;;
19535;SDS011;9913;51.168;4.124;2023-11-19T08:44:30;37.87;;;6.93;;
19535;SDS011;9913;51.168;4.124;2023-11-19T08:46:58;26.40;;;6.70;;
19535;SDS011;9913;51.168;4.124;2023-11-19T08:49:28;28.40;;;6.83;;
19535;SDS011;9913;51.168;4.124;2023-11-19T08:51:56;28.47;;;7.33;;
19535;SDS011;9913;51.168;4.124;2023-11-19T08:54:24;33.37;;;6.57;;
19535;SDS011;9913;51.168;4.124;2023-11-19T08:56:53;30.50;;;8.00;;
19535;SDS011;9913;51.168;4.124;2023-11-19T08:59:21;32.07;;;6.80;;
19535;SDS011;9913;51.168;4.124;2023-11-19T09:01:49;27.40;;;7.40;;
19535;SDS011;9913;51.168;4.124;2023-11-19T09:04:18;34.87;;;7.10;;
19535;SDS011;9913;51.168;4.124;2023-11-19T09:06:50;35.10;;;6.50;;
19535;SDS011;9913;51.168;4.124;2023-11-19T09:09:18;28.80;;;6.33;;
19535;SDS011;9913;51.168;4.124;2023-11-19T09:11:47;28.37;;;6.37;;
19535;SDS011;9913;51.168;4.124;2023-11-19T09:14:15;30.37;;;6.90;;
19535;SDS011;9913;51.168;4.124;2023-11-19T09:16:44;36.43;;;7.23;;
19535;SDS011;9913;51.168;4.124;2023-11-19T09:19:13;25.77;;;6.93;;
19535;SDS011;9913;51.168;4.124;2023-11-19T09:21:41;26.97;;;6.60;;
19535;SDS011;9913;51.168;4.124;2023-11-19T09:24:11;26.83;;;6.40;;
19535;SDS011;9913;51.168;4.124;2023-11-19T09:26:42;30.43;;;6.00;;
19535;SDS011;9913;51.168;4.124;2023-11-19T09:29:11;30.43;;;6.97;;
19535;SDS011;9913;51.168;4.124;2023-11-19T09:31:41;28.17;;;6.20;;
19535;SDS011;9913;51.168;4.124;2023-11-19T09:34:09;30.70;;;6.60;;
19535;SDS011;9913;51.168;4.124;2023-11-19T09:36:37;27.27;;;6.70;;
19535;SDS011;9913;51.168;4.124;2023-11-19T09:39:12;25.30;;;5.73;;
19535;SDS011;9913;51.168;4.124;2023-11-19T09:41:41;29.70;;;6.80;;
19535;SDS011;9913;51.168;4.124;2023-11-19T09:44:11;25.33;;;6.97;;
19535;SDS011;9913;51.168;4.124;2023-11-19T09:46:41;23.20;;;6.13;;
19535;SDS011;9913;51.168;4.124;2023-11-19T09:49:09;23.87;;;6.00;;
19535;SDS011;9913;51.168;4.124;2023-11-19T09:51:41;24.43;;;6.73;;
19535;SDS011;9913;51.168;4.124;2023-11-19T09:54:09;25.10;;;5.57;;
19535;SDS011;9913;51.168;4.124;2023-11-19T09:56:41;28.23;;;5.97;;
19535;SDS011;9913;51.168;4.124;2023-11-19T09:59:09;30.43;;;6.60;;
19535;SDS011;9913;51.168;4.124;2023-11-19T10:01:39;27.20;;;6.10;;
19535;SDS011;9913;51.168;4.124;2023-11-19T10:04:08;25.80;;;6.13;;
19535;SDS011;9913;51.168;4.124;2023-11-19T10:06:37;31.87;;;6.33;;
19535;SDS011;9913;51.168;4.124;2023-11-19T10:09:06;23.20;;;5.03;;
19535;SDS011;9913;51.168;4.124;2023-11-19T10:11:34;21.87;;;5.43;;
19535;SDS011;9913;51.168;4.124;2023-11-19T10:14:04;28.60;;;5.87;;
19535;SDS011;9913;51.168;4.124;2023-11-19T10:16:34;25.90;;;5.70;;
19535;SDS011;9913;51.168;4.124;2023-11-19T10:19:02;19.83;;;5.17;;
19535;SDS011;9913;51.168;4.124;2023-11-19T10:21:32;30.43;;;6.03;;
19535;SDS011;9913;51.168;4.124;2023-11-19T10:24:01;29.40;;;6.50;;
19535;SDS011;9913;51.168;4.124;2023-11-19T10:26:29;24.30;;;5.67;;
19535;SDS011;9913;51.168;4.124;2023-11-19T10:28:57;24.50;;;5.67;;
19535;SDS011;9913;51.168;4.124;2023-11-19T10:31:27;26.00;;;5.13;;
19535;SDS011;9913;51.168;4.124;2023-11-19T10:33:56;29.50;;;5.67;;
19535;SDS011;9913;51.168;4.124;2023-11-19T10:36:36;27.17;;;5.53;;
19535;SDS011;9913;51.168;4.124;2023-11-19T10:39:05;28.37;;;5.97;;
19535;SDS011;9913;51.168;4.124;2023-11-19T10:41:35;23.23;;;5.03;;
19535;SDS011;9913;51.168;4.124;2023-11-19T10:44:04;23.03;;;5.87;;
19535;SDS011;9913;51.168;4.124;2023-11-19T10:46:37;25.77;;;5.77;;
19535;SDS011;9913;51.168;4.124;2023-11-19T10:49:07;24.20;;;5.40;;
19535;SDS011;9913;51.168;4.124;2023-11-19T10:51:37;22.97;;;5.67;;
19535;SDS011;9913;51.168;4.124;2023-11-19T10:54:10;23.50;;;5.93;;
19535;SDS011;9913;51.168;4.124;2023-11-19T10:56:39;25.07;;;5.03;;
19535;SDS011;9913;51.168;4.124;2023-11-19T10:59:10;23.97;;;5.67;;
19535;SDS011;9913;51.168;4.124;2023-11-19T11:01:45;27.43;;;5.70;;
19535;SDS011;9913;51.168;4.124;2023-11-19T11:04:19;23.43;;;5.37;;
19535;SDS011;9913;51.168;4.124;2023-11-19T11:06:51;22.63;;;5.30;;
19535;SDS011;9913;51.168;4.124;2023-11-19T11:09:19;27.67;;;5.17;;
19535;SDS011;9913;51.168;4.124;2023-11-19T11:11:49;22.67;;;5.50;;
19535;SDS011;9913;51.168;4.124;2023-11-19T11:14:19;18.77;;;4.87;;
19535;SDS011;9913;51.168;4.124;2023-11-19T11:16:50;26.47;;;5.70;;
19535;SDS011;9913;51.168;4.124;2023-11-19T11:19:21;23.00;;;5.23;;
19535;SDS011;9913;51.168;4.124;2023-11-19T11:21:49;19.13;;;4.53;;
19535;SDS011;9913;51.168;4.124;2023-11-19T11:24:26;23.30;;;6.13;;
19535;SDS011;9913;51.168;4.124;2023-11-19T11:27:33;20.13;;;5.40;;
19535;SDS011;9913;51.168;4.124;2023-11-19T11:30:19;23.27;;;4.97;;
19535;SDS011;9913;51.168;4.124;2023-11-19T11:33:02;27.60;;;4.83;;
19535;SDS011;9913;51.168;4.124;2023-11-19T11:35:40;22.13;;;5.90;;
19535;SDS011;9913;51.168;4.124;2023-11-19T11:38:16;18.40;;;5.07;;
19535;SDS011;9913;51.168;4.124;2023-11-19T11:43:44;26.37;;;5.67;;
19535;SDS011;9913;51.168;4.124;2023-11-19T11:49:13;23.43;;;5.67;;
19535;SDS011;9913;51.168;4.124;2023-11-19T11:51:58;17.77;;;5.00;;
19535;SDS011;9913;51.168;4.124;2023-11-19T11:54:28;17.40;;;5.27;;
19535;SDS011;9913;51.168;4.124;2023-11-19T11:57:01;20.03;;;4.90;;
19535;SDS011;9913;51.168;4.124;2023-11-19T11:59:37;21.37;;;5.67;;
19535;SDS011;9913;51.168;4.124;2023-11-19T12:02:11;25.47;;;5.83;;
19535;SDS011;9913;51.168;4.124;2023-11-19T12:04:42;27.43;;;5.67;;
19535;SDS011;9913;51.168;4.124;2023-11-19T12:07:19;26.87;;;5.97;;
19535;SDS011;9913;51.168;4.124;2023-11-19T12:09:51;26.80;;;6.47;;
19535;SDS011;9913;51.168;4.124;2023-11-19T12:12:22;33.90;;;6.37;;
19535;SDS011;9913;51.168;4.124;2023-11-19T12:15:04;25.50;;;5.93;;
19535;SDS011;9913;51.168;4.124;2023-11-19T12:17:37;26.50;;;6.27;;
19535;SDS011;9913;51.168;4.124;2023-11-19T12:20:19;22.00;;;5.53;;
19535;SDS011;9913;51.168;4.124;2023-11-19T12:22:52;21.50;;;5.50;;
19535;SDS011;9913;51.168;4.124;2023-11-19T12:25:21;23.50;;;6.00;;
19535;SDS011;9913;51.168;4.124;2023-11-19T12:27:50;28.97;;;5.83;;
19535;SDS011;9913;51.168;4.124;2023-11-19T12:30:21;26.07;;;6.43;;
19535;SDS011;9913;51.168;4.124;2023-11-19T12:32:51;19.93;;;5.50;;
19535;SDS011;9913;51.168;4.124;2023-11-19T12:35:22;28.03;;;5.87;;
19535;SDS011;9913;51.168;4.124;2023-11-19T12:37:51;26.17;;;5.93;;
19535;SDS011;9913;51.168;4.124;2023-11-19T12:40:20;30.60;;;6.80;;
19535;SDS011;9913;51.168;4.124;2023-11-19T12:42:51;27.47;;;6.17;;
19535;SDS011;9913;51.168;4.124;2023-11-19T12:45:21;23.23;;;6.83;;
19535;SDS011;9913;51.168;4.124;2023-11-19T12:48:03;24.30;;;5.70;;
19535;SDS011;9913;51.168;4.124;2023-11-19T12:53:20;21.30;;;5.77;;
19535;SDS011;9913;51.168;4.124;2023-11-19T12:55:49;23.70;;;5.83;;
19535;SDS011;9913;51.168;4.124;2023-11-19T12:58:28;23.57;;;5.83;;
19535;SDS011;9913;51.168;4.124;2023-11-19T13:01:00;17.30;;;4.90;;
19535;SDS011;9913;51.168;4.124;2023-11-19T13:03:30;19.70;;;5.13;;
19535;SDS011;9913;51.168;4.124;2023-11-19T13:06:04;16.53;;;5.30;;
19535;SDS011;9913;51.168;4.124;2023-11-19T13:08:38;22.67;;;5.23;;
19535;SDS011;9913;51.168;4.124;2023-11-19T13:11:07;21.40;;;5.27;;
19535;SDS011;9913;51.168;4.124;2023-11-19T13:13:54;23.80;;;5.53;;
19535;SDS011;9913;51.168;4.124;2023-11-19T13:16:24;26.33;;;5.63;;
19535;SDS011;9913;51.168;4.124;2023-11-19T13:18:53;26.93;;;6.10;;
19535;SDS011;9913;51.168;4.124;2023-11-19T13:21:23;24.40;;;5.70;;
19535;SDS011;9913;51.168;4.124;2023-11-19T13:23:51;21.03;;;4.80;;
19535;SDS011;9913;51.168;4.124;2023-11-19T13:26:20;26.63;;;5.30;;
19535;SDS011;9913;51.168;4.124;2023-11-19T13:28:48;26.10;;;5.10;;
19535;SDS011;9913;51.168;4.124;2023-11-19T13:31:16;23.17;;;5.77;;
19535;SDS011;9913;51.168;4.124;2023-11-19T13:33:45;26.43;;;5.87;;
19535;SDS011;9913;51.168;4.124;2023-11-19T13:36:13;18.30;;;5.00;;
19535;SDS011;9913;51.168;4.124;2023-11-19T13:38:44;29.80;;;6.40;;
19535;SDS011;9913;51.168;4.124;2023-11-19T13:41:13;21.67;;;5.57;;
19535;SDS011;9913;51.168;4.124;2023-11-19T13:43:42;21.77;;;5.47;;
19535;SDS011;9913;51.168;4.124;2023-11-19T13:46:10;21.83;;;5.33;;
19535;SDS011;9913;51.168;4.124;2023-11-19T13:48:42;24.10;;;5.50;;
19535;SDS011;9913;51.168;4.124;2023-11-19T13:51:10;21.60;;;5.27;;
19535;SDS011;9913;51.168;4.124;2023-11-19T13:53:38;24.17;;;6.07;;
19535;SDS011;9913;51.168;4.124;2023-11-19T13:56:11;23.97;;;5.00;;
19535;SDS011;9913;51.168;4.124;2023-11-19T13:58:39;28.37;;;5.87;;
19535;SDS011;9913;51.168;4.124;2023-11-19T14:01:08;29.57;;;5.87;;
19535;SDS011;9913;51.168;4.124;2023-11-19T14:03:36;21.03;;;5.50;;
19535;SDS011;9913;51.168;4.124;2023-11-19T14:06:05;24.67;;;5.97;;
19535;SDS011;9913;51.168;4.124;2023-11-19T14:08:35;23.23;;;6.47;;
19535;SDS011;9913;51.168;4.124;2023-11-19T14:11:04;22.13;;;6.33;;
19535;SDS011;9913;51.168;4.124;2023-11-19T14:13:35;27.00;;;6.63;;
19535;SDS011;9913;51.168;4.124;2023-11-19T14:16:03;25.60;;;7.20;;
19535;SDS011;9913;51.168;4.124;2023-11-19T14:18:36;25.50;;;6.07;;
19535;SDS011;9913;51.168;4.124;2023-11-19T14:21:05;25.90;;;6.40;;
19535;SDS011;9913;51.168;4.124;2023-11-19T14:23:33;36.30;;;7.33;;
19535;SDS011;9913;51.168;4.124;2023-11-19T14:26:02;22.17;;;5.27;;
19535;SDS011;9913;51.168;4.124;2023-11-19T14:28:30;25.37;;;6.50;;
19535;SDS011;9913;51.168;4.124;2023-11-19T14:30:59;23.73;;;5.93;;
19535;SDS011;9913;51.168;4.124;2023-11-19T14:33:28;25.63;;;6.50;;
19535;SDS011;9913;51.168;4.124;2023-11-19T14:35:56;26.47;;;5.90;;
19535;SDS011;9913;51.168;4.124;2023-11-19T14:38:25;21.27;;;6.27;;
19535;SDS011;9913;51.168;4.124;2023-11-19T14:40:53;29.50;;;6.17;;
19535;SDS011;9913;51.168;4.124;2023-11-19T14:43:21;29.57;;;5.63;;
19535;SDS011;9913;51.168;4.124;2023-11-19T14:45:51;18.13;;;4.83;;
19535;SDS011;9913;51.168;4.124;2023-11-19T14:48:23;22.10;;;5.37;;
19535;SDS011;9913;51.168;4.124;2023-11-19T14:50:52;19.87;;;6.17;;
19535;SDS011;9913;51.168;4.124;2023-11-19T14:53:20;22.43;;;6.33;;
19535;SDS011;9913;51.168;4.124;2023-11-19T14:55:49;23.93;;;5.53;;
19535;SDS011;9913;51.168;4.124;2023-11-19T14:58:17;22.17;;;6.70;;
19535;SDS011;9913;51.168;4.124;2023-11-19T15:00:46;23.67;;;6.13;;
19535;SDS011;9913;51.168;4.124;2023-11-19T15:03:14;23.77;;;5.50;;
19535;SDS011;9913;51.168;4.124;2023-11-19T15:05:47;21.43;;;5.33;;
19535;SDS011;9913;51.168;4.124;2023-11-19T15:08:17;24.10;;;5.47;;
19535;SDS011;9913;51.168;4.124;2023-11-19T15:10:46;24.73;;;5.93;;
19535;SDS011;9913;51.168;4.124;2023-11-19T15:13:14;22.50;;;5.97;;